Time;durP1;ratioP1;P1;durP2;ratioP2;P2;SDS_P1;SDS_P2;PMS_P1;PMS_P2;Temp;Humidity;BMP_temperature;BMP_pressure;BME280_temperature;BME280_humidity;BME280_pressure;Samples;Min_cycle;Max_cycle;Signal;HPM_P1;HPM_P2
2020/12/07 00:00:39;;;;;;;5.90;4.97;;;6.00;99.90;;;;;;5031122;28;20209;-64
2020/12/07 00:03:05;;;;;;;5.43;4.83;;;5.90;99.90;;;;;;5031776;28;20229;-64
2020/12/07 00:05:32;;;;;;;5.00;4.50;;;6.00;99.90;;;;;;5031581;28;20209;-61
2020/12/07 00:08:01;;;;;;;5.03;4.53;;;6.00;99.90;;;;;;5030540;28;20730;-60
2020/12/07 00:10:28;;;;;;;5.37;4.67;;;6.00;99.90;;;;;;5031269;28;20210;-59
2020/12/07 00:12:54;;;;;;;4.67;4.20;;;6.00;99.90;;;;;;5031271;28;20408;-61
2020/12/07 00:15:20;;;;;;;6.03;4.27;;;6.00;99.90;;;;;;5030898;28;20308;-62
2020/12/07 00:17:46;;;;;;;4.97;4.27;;;6.10;99.90;;;;;;5030866;28;20226;-60
2020/12/07 00:20:12;;;;;;;4.80;4.30;;;6.10;99.90;;;;;;5031442;28;20210;-61
2020/12/07 00:22:38;;;;;;;5.77;4.73;;;6.10;99.90;;;;;;5031073;28;20678;-61
2020/12/07 00:25:06;;;;;;;4.73;4.00;;;6.20;99.90;;;;;;5030679;28;20210;-61
2020/12/07 00:27:34;;;;;;;6.73;4.37;;;6.20;99.90;;;;;;5030644;28;20575;-61
2020/12/07 00:30:01;;;;;;;4.43;4.03;;;6.20;99.90;;;;;;5030992;28;20210;-61
2020/12/07 00:32:27;;;;;;;5.00;4.50;;;6.30;99.90;;;;;;5030861;28;20210;-61
2020/12/07 00:34:55;;;;;;;13.27;11.23;;;6.30;99.90;;;;;;5030766;28;20242;-61
2020/12/07 00:37:22;;;;;;;12.77;9.73;;;6.30;99.90;;;;;;5030540;28;20740;-61
2020/12/07 00:39:49;;;;;;;5.23;4.73;;;6.40;99.90;;;;;;5030373;28;20686;-61
2020/12/07 00:42:16;;;;;;;4.33;3.93;;;6.40;99.90;;;;;;5030944;28;20616;-61
2020/12/07 00:44:42;;;;;;;5.40;4.27;;;6.40;99.90;;;;;;5033313;28;20209;-61
2020/12/07 00:47:10;;;;;;;5.33;4.30;;;6.30;99.90;;;;;;5034294;28;20226;-61
2020/12/07 00:49:37;;;;;;;4.33;3.93;;;6.20;99.90;;;;;;5033886;28;20207;-61
2020/12/07 00:52:04;;;;;;;4.40;4.00;;;6.10;99.90;;;;;;5034253;28;20210;-61
2020/12/07 00:54:30;;;;;;;5.00;3.93;;;6.10;99.90;;;;;;5033857;28;20209;-61
2020/12/07 00:56:57;;;;;;;5.67;4.80;;;6.00;99.90;;;;;;5034063;28;20227;-62
2020/12/07 00:59:25;;;;;;;6.07;4.00;;;6.10;99.90;;;;;;5034156;28;20210;-62
2020/12/07 01:01:52;;;;;;;5.23;4.17;;;6.10;99.90;;;;;;5034342;28;20206;-61
2020/12/07 01:04:18;;;;;;;4.30;3.90;;;6.10;99.90;;;;;;5034303;28;20207;-61
2020/12/07 01:06:45;;;;;;;4.60;4.20;;;6.10;99.90;;;;;;5034114;28;20222;-61
2020/12/07 01:09:13;;;;;;;4.00;3.60;;;6.10;99.90;;;;;;5033748;28;20206;-61
2020/12/07 01:11:42;;;;;;;3.90;3.50;;;6.10;99.90;;;;;;5033950;28;20268;-61
2020/12/07 01:14:08;;;;;;;4.40;3.70;;;6.00;99.90;;;;;;5033403;28;20736;-60
2020/12/07 01:16:36;;;;;;;4.40;4.00;;;6.00;99.90;;;;;;5033582;28;20656;-60
2020/12/07 01:19:04;;;;;;;4.00;3.60;;;6.00;99.90;;;;;;5033412;28;20217;-61
2020/12/07 01:21:31;;;;;;;3.77;3.47;;;6.00;99.90;;;;;;5033243;28;20202;-61
2020/12/07 01:23:58;;;;;;;3.80;3.50;;;6.00;99.90;;;;;;5033269;28;20242;-61
2020/12/07 01:26:25;;;;;;;4.40;3.70;;;6.00;99.90;;;;;;5033607;28;20628;-61
2020/12/07 01:28:51;;;;;;;4.40;4.00;;;6.10;99.90;;;;;;5033126;28;20589;-60
2020/12/07 01:31:18;;;;;;;4.27;3.83;;;6.10;99.90;;;;;;5033714;28;20596;-61
2020/12/07 01:33:45;;;;;;;4.07;3.50;;;6.10;99.90;;;;;;5032918;28;20570;-61
2020/12/07 01:36:11;;;;;;;3.40;3.10;;;6.20;99.90;;;;;;5033177;28;20267;-60
2020/12/07 01:38:37;;;;;;;4.60;3.20;;;6.20;99.90;;;;;;5033087;28;20825;-60
2020/12/07 01:41:04;;;;;;;4.00;3.33;;;6.20;99.90;;;;;;5033452;28;20214;-61
2020/12/07 01:43:30;;;;;;;3.83;3.43;;;6.20;99.90;;;;;;5032829;28;20693;-60
2020/12/07 01:45:56;;;;;;;3.87;3.30;;;6.20;99.90;;;;;;5033267;28;20198;-60
2020/12/07 01:48:25;;;;;;;3.77;3.43;;;6.30;99.90;;;;;;5032796;28;20237;-62
2020/12/07 01:50:53;;;;;;;3.63;3.30;;;6.30;99.90;;;;;;5033065;28;20203;-60
2020/12/07 01:53:20;;;;;;;4.03;3.43;;;6.30;99.90;;;;;;5033165;28;20645;-61
2020/12/07 01:55:47;;;;;;;4.17;3.30;;;6.30;99.90;;;;;;5031952;28;20225;-61
2020/12/07 01:58:13;;;;;;;3.23;2.93;;;6.30;99.90;;;;;;5032415;28;20230;-61
2020/12/07 02:00:40;;;;;;;8.20;3.90;;;6.30;99.90;;;;;;5032960;28;20213;-61
2020/12/07 02:03:06;;;;;;;3.17;2.93;;;6.40;99.90;;;;;;5032780;28;20244;-61
2020/12/07 02:05:35;;;;;;;3.70;3.20;;;6.40;99.90;;;;;;5032832;28;20678;-61
2020/12/07 02:08:15;;;;;;;3.57;3.03;;;6.30;99.90;;;;;;5032277;28;20706;-61
2020/12/07 02:10:42;;;;;;;3.87;3.47;;;6.20;99.90;;;;;;5032735;28;20217;-62
2020/12/07 02:13:08;;;;;;;3.47;2.90;;;6.20;99.90;;;;;;5032947;28;20217;-61
2020/12/07 02:15:35;;;;;;;3.10;2.80;;;6.10;99.90;;;;;;5032516;28;20226;-61
2020/12/07 02:18:01;;;;;;;3.93;2.97;;;6.10;99.90;;;;;;5032788;28;20619;-62
2020/12/07 02:20:28;;;;;;;3.23;2.87;;;6.20;99.90;;;;;;5032921;28;20209;-61
2020/12/07 02:22:54;;;;;;;3.77;2.63;;;6.20;99.90;;;;;;5032637;28;20692;-60
2020/12/07 02:25:21;;;;;;;3.63;2.93;;;6.10;99.90;;;;;;5032280;28;20214;-61
2020/12/07 02:27:48;;;;;;;4.07;3.00;;;6.10;99.90;;;;;;5032128;28;20226;-61
2020/12/07 02:30:16;;;;;;;4.03;2.67;;;6.20;99.90;;;;;;5032102;28;20206;-60
2020/12/07 02:32:42;;;;;;;3.00;2.70;;;6.20;99.90;;;;;;5032544;28;20245;-61
2020/12/07 02:35:09;;;;;;;3.47;3.17;;;6.20;99.90;;;;;;5032070;28;20241;-61
2020/12/07 02:37:37;;;;;;;3.40;3.10;;;6.20;99.90;;;;;;5032482;28;20261;-61
2020/12/07 02:40:04;;;;;;;3.70;3.23;;;6.20;99.90;;;;;;5032189;28;20635;-60
2020/12/07 02:42:33;;;;;;;3.13;2.80;;;6.20;99.90;;;;;;5032385;28;20206;-61
2020/12/07 02:45:00;;;;;;;2.93;2.67;;;6.20;99.90;;;;;;5031842;28;20241;-61
2020/12/07 02:47:26;;;;;;;2.53;2.33;;;5.90;99.90;;;;;;5032210;28;20227;-61
2020/12/07 02:49:55;;;;;;;2.63;2.37;;;5.90;99.90;;;;;;5031817;28;20297;-60
2020/12/07 02:52:23;;;;;;;2.90;2.20;;;5.90;99.90;;;;;;5031857;28;20225;-61
2020/12/07 02:54:52;;;;;;;2.40;2.10;;;5.80;99.90;;;;;;5031435;28;20202;-61
2020/12/07 02:57:18;;;;;;;3.07;2.40;;;5.80;99.90;;;;;;5032157;28;20627;-61
2020/12/07 02:59:44;;;;;;;2.60;2.40;;;5.80;99.90;;;;;;5031330;28;20202;-61
2020/12/07 03:02:11;;;;;;;2.13;1.93;;;5.80;99.90;;;;;;5031776;28;20212;-61
2020/12/07 03:04:37;;;;;;;2.60;2.20;;;5.80;99.90;;;;;;5031386;28;20214;-61
2020/12/07 03:07:03;;;;;;;3.60;2.30;;;5.80;99.90;;;;;;5031679;28;20233;-60
2020/12/07 03:09:29;;;;;;;2.40;2.20;;;5.90;99.90;;;;;;5031381;28;20229;-61
2020/12/07 03:11:56;;;;;;;2.10;1.90;;;5.90;99.90;;;;;;5031645;28;20217;-61
2020/12/07 03:14:23;;;;;;;4.70;2.10;;;5.90;99.90;;;;;;5031581;28;20209;-60
2020/12/07 03:16:49;;;;;;;2.10;1.90;;;5.90;99.90;;;;;;5031452;28;20234;-61
2020/12/07 03:19:15;;;;;;;1.80;1.70;;;6.00;99.90;;;;;;5031115;28;20211;-61
2020/12/07 03:21:41;;;;;;;2.40;2.20;;;6.00;99.90;;;;;;5031013;28;20670;-61
2020/12/07 03:24:07;;;;;;;2.20;1.90;;;6.00;99.90;;;;;;5031096;28;20268;-61
2020/12/07 03:26:34;;;;;;;1.90;1.70;;;6.00;99.90;;;;;;5031030;28;20229;-61
2020/12/07 03:29:03;;;;;;;2.33;1.97;;;5.80;99.90;;;;;;5031117;28;20206;-61
2020/12/07 03:31:29;;;;;;;1.80;1.70;;;6.00;99.90;;;;;;5031880;28;20210;-60
2020/12/07 03:33:55;;;;;;;2.00;1.80;;;6.00;99.90;;;;;;5031694;28;20210;-60
2020/12/07 03:36:22;;;;;;;1.87;1.60;;;6.00;99.90;;;;;;5031516;28;20222;-60
2020/12/07 03:38:48;;;;;;;2.20;1.97;;;6.00;99.90;;;;;;5031003;28;20213;-61
2020/12/07 03:41:14;;;;;;;2.07;1.70;;;6.00;99.90;;;;;;5031059;28;20210;-60
2020/12/07 03:43:40;;;;;;;2.40;1.70;;;5.90;99.90;;;;;;5030832;28;20209;-61
2020/12/07 03:46:07;;;;;;;2.07;1.87;;;6.00;99.90;;;;;;5031146;28;20202;-61
2020/12/07 03:48:34;;;;;;;2.30;1.77;;;6.10;99.90;;;;;;5030577;28;20733;-61
2020/12/07 03:51:00;;;;;;;2.53;1.67;;;6.10;99.90;;;;;;5031007;28;20210;-61
2020/12/07 03:53:31;;;;;;;2.40;2.20;;;6.20;99.90;;;;;;5030789;28;20213;-61
2020/12/07 03:55:57;;;;;;;2.10;1.60;;;6.20;99.90;;;;;;5031070;28;20721;-61
2020/12/07 03:58:23;;;;;;;2.10;1.90;;;6.20;99.90;;;;;;5030797;28;20329;-61
2020/12/07 04:00:49;;;;;;;1.70;1.60;;;6.10;99.90;;;;;;5031029;28;20209;-60
2020/12/07 04:03:16;;;;;;;2.70;1.80;;;6.20;99.90;;;;;;5031161;28;20231;-61
2020/12/07 04:05:45;;;;;;;3.20;1.63;;;6.30;99.90;;;;;;5030769;28;20198;-61
2020/12/07 04:08:11;;;;;;;1.93;1.50;;;6.30;99.90;;;;;;5030663;28;20234;-60
2020/12/07 04:10:38;;;;;;;3.17;2.00;;;6.30;99.90;;;;;;5031466;28;20238;-61
2020/12/07 04:13:04;;;;;;;2.70;1.77;;;6.30;99.90;;;;;;5031104;28;20543;-61
2020/12/07 04:15:30;;;;;;;1.83;1.73;;;6.20;99.90;;;;;;5030613;28;20206;-61
2020/12/07 04:17:56;;;;;;;1.50;1.40;;;6.30;99.90;;;;;;5030520;28;20760;-60
2020/12/07 04:20:23;;;;;;;1.83;1.67;;;6.20;99.90;;;;;;5035065;28;20217;-60
2020/12/07 04:22:50;;;;;;;1.80;1.70;;;6.20;99.90;;;;;;5034984;28;20206;-60
2020/12/07 04:25:17;;;;;;;3.17;1.73;;;6.20;99.90;;;;;;5034917;28;20209;-60
2020/12/07 04:27:43;;;;;;;1.40;1.30;;;6.20;99.90;;;;;;5035069;28;20218;-60
2020/12/07 04:30:09;;;;;;;1.50;1.40;;;6.20;99.90;;;;;;5034860;28;20210;-60
2020/12/07 04:32:36;;;;;;;1.67;1.57;;;6.30;99.90;;;;;;5034575;28;20675;-60
2020/12/07 04:35:03;;;;;;;1.50;1.40;;;6.30;99.90;;;;;;5034109;28;20214;-60
2020/12/07 04:37:30;;;;;;;1.77;1.50;;;6.20;99.90;;;;;;5034182;28;20649;-61
2020/12/07 04:39:57;;;;;;;2.90;1.57;;;6.30;99.90;;;;;;5034074;28;20224;-60
2020/12/07 04:42:24;;;;;;;2.13;1.93;;;6.20;99.90;;;;;;5034450;28;20674;-60
2020/12/07 04:44:50;;;;;;;2.20;1.90;;;6.30;99.90;;;;;;5034142;28;20202;-60
2020/12/07 04:47:18;;;;;;;1.67;1.57;;;6.40;99.90;;;;;;5034056;28;20218;-60
2020/12/07 04:49:45;;;;;;;1.90;1.60;;;6.40;99.90;;;;;;5033966;28;20221;-60
2020/12/07 04:52:12;;;;;;;1.77;1.47;;;6.30;99.90;;;;;;5034013;28;20210;-60
2020/12/07 04:54:42;;;;;;;2.00;1.80;;;6.40;99.90;;;;;;5033922;28;20206;-60
2020/12/07 04:57:09;;;;;;;1.70;1.60;;;6.40;99.90;;;;;;5033850;28;20257;-60
2020/12/07 04:59:40;;;;;;;1.87;1.60;;;6.30;99.90;;;;;;5033953;28;20217;-61
2020/12/07 05:02:06;;;;;;;2.10;1.60;;;6.30;99.90;;;;;;5034099;28;20653;-61
2020/12/07 05:04:32;;;;;;;2.50;1.80;;;6.30;99.90;;;;;;5033587;28;20411;-61
2020/12/07 05:07:00;;;;;;;1.70;1.60;;;6.30;99.90;;;;;;5033977;28;20230;-60
2020/12/07 05:09:26;;;;;;;4.97;2.23;;;6.20;99.90;;;;;;5033797;28;20206;-61
2020/12/07 05:11:55;;;;;;;2.00;1.60;;;6.20;99.90;;;;;;5033925;28;20210;-60
2020/12/07 05:14:22;;;;;;;4.83;1.93;;;6.20;99.90;;;;;;5033903;28;20215;-60
2020/12/07 05:16:48;;;;;;;2.17;1.73;;;6.20;99.90;;;;;;5033500;28;20768;-61
2020/12/07 05:19:15;;;;;;;2.37;1.80;;;6.30;99.90;;;;;;5033617;28;20211;-61
2020/12/07 05:21:41;;;;;;;1.90;1.53;;;6.40;99.90;;;;;;5033846;28;20210;-61
2020/12/07 05:24:08;;;;;;;1.60;1.50;;;6.40;99.90;;;;;;5033548;28;20238;-61
2020/12/07 05:26:34;;;;;;;10.93;7.60;;;6.50;99.90;;;;;;5033460;28;20222;-61
2020/12/07 05:29:06;;;;;;;2.33;1.90;;;6.40;99.90;;;;;;5033297;28;20245;-60
2020/12/07 05:31:33;;;;;;;2.50;2.10;;;6.40;99.90;;;;;;5032424;28;20284;-61
2020/12/07 05:34:00;;;;;;;2.47;2.00;;;6.50;99.90;;;;;;5033509;28;20194;-60
2020/12/07 05:36:27;;;;;;;3.17;1.90;;;6.50;99.90;;;;;;5033639;28;20229;-61
2020/12/07 05:38:53;;;;;;;2.13;1.93;;;6.50;99.90;;;;;;5033511;28;20214;-61
2020/12/07 05:41:22;;;;;;;2.60;2.23;;;6.40;99.90;;;;;;5033641;28;20221;-60
2020/12/07 05:43:51;;;;;;;3.03;2.60;;;6.40;99.90;;;;;;5032968;28;20221;-60
2020/12/07 05:46:20;;;;;;;4.53;2.50;;;6.40;99.90;;;;;;5033484;28;20221;-60
2020/12/07 05:48:49;;;;;;;4.70;2.70;;;6.40;99.90;;;;;;5033280;28;20658;-60
2020/12/07 05:51:17;;;;;;;3.80;2.40;;;6.30;99.90;;;;;;5033356;28;20233;-61
2020/12/07 05:53:44;;;;;;;4.13;3.20;;;6.30;99.90;;;;;;5033260;28;20213;-60
2020/12/07 05:56:10;;;;;;;2.43;2.20;;;6.20;99.90;;;;;;5033035;28;20698;-60
2020/12/07 05:58:48;;;;;;;3.93;2.87;;;6.20;99.90;;;;;;5032769;28;20257;-60
2020/12/07 06:01:17;;;;;;;3.17;2.07;;;6.10;99.90;;;;;;5033052;28;20206;-61
2020/12/07 06:03:44;;;;;;;2.47;2.07;;;6.10;99.90;;;;;;5032923;28;20214;-60
2020/12/07 06:06:10;;;;;;;3.50;2.57;;;6.10;99.90;;;;;;5032821;28;20198;-61
2020/12/07 06:08:39;;;;;;;3.00;2.07;;;6.00;99.90;;;;;;5032709;28;20598;-60
2020/12/07 06:11:08;;;;;;;3.13;2.60;;;6.10;99.90;;;;;;5032905;28;20206;-60
2020/12/07 06:13:35;;;;;;;4.33;3.00;;;6.10;99.90;;;;;;5032709;28;20217;-59
2020/12/07 06:16:04;;;;;;;6.37;4.50;;;6.10;99.90;;;;;;5032908;28;20222;-60
2020/12/07 06:18:32;;;;;;;4.67;3.37;;;6.10;99.90;;;;;;5032730;28;20230;-60
2020/12/07 06:21:04;;;;;;;3.80;2.50;;;6.10;99.90;;;;;;5032825;28;20674;-60
2020/12/07 06:23:32;;;;;;;3.63;2.27;;;6.10;99.90;;;;;;5032116;28;20225;-60
2020/12/07 06:26:03;;;;;;;3.70;2.93;;;6.10;99.90;;;;;;5032470;28;20592;-60
2020/12/07 06:28:33;;;;;;;4.27;2.60;;;6.10;99.90;;;;;;5032178;28;20262;-60
2020/12/07 06:31:08;;;;;;;4.37;2.83;;;6.00;99.90;;;;;;5032552;28;20217;-60
2020/12/07 06:33:39;;;;;;;4.13;3.13;;;5.90;99.90;;;;;;5032185;28;20659;-60
2020/12/07 06:36:22;;;;;;;4.00;2.50;;;5.80;99.90;;;;;;5031961;28;20225;-61
2020/12/07 06:38:49;;;;;;;9.50;6.50;;;5.80;99.90;;;;;;5032203;28;20206;-60
2020/12/07 06:41:17;;;;;;;3.93;3.07;;;5.90;99.90;;;;;;5031999;28;20245;-60
2020/12/07 06:43:56;;;;;;;4.43;3.00;;;5.90;99.90;;;;;;5032111;28;20678;-59
2020/12/07 06:46:52;;;;;;;3.20;2.60;;;5.90;99.90;;;;;;5032201;28;20210;-60
2020/12/07 06:49:22;;;;;;;5.10;3.80;;;6.10;99.90;;;;;;5032114;28;20260;-60
2020/12/07 06:51:57;;;;;;;5.00;3.37;;;6.10;99.90;;;;;;5032292;28;20300;-60
2020/12/07 06:57:20;;;;;;;5.23;3.83;;;6.20;99.90;;;;;;5031979;28;20784;-60
2020/12/07 07:00:02;;;;;;;4.70;3.27;;;6.30;99.90;;;;;;5031810;28;20205;-60
2020/12/07 07:02:30;;;;;;;3.73;2.77;;;6.30;99.90;;;;;;5032076;28;20578;-60
2020/12/07 07:04:58;;;;;;;3.30;3.00;;;6.30;99.90;;;;;;5031575;28;20249;-60
2020/12/07 07:07:26;;;;;;;4.47;3.17;;;6.40;99.90;;;;;;5031504;28;20223;-60
2020/12/07 07:09:53;;;;;;;5.63;3.43;;;6.40;99.90;;;;;;5031465;28;20206;-60
2020/12/07 07:12:20;;;;;;;5.50;4.00;;;6.50;99.90;;;;;;5031833;28;20268;-60
2020/12/07 07:14:48;;;;;;;4.10;3.03;;;6.50;99.90;;;;;;5031288;28;20214;-60
2020/12/07 07:17:15;;;;;;;4.87;3.17;;;6.50;99.90;;;;;;5031263;28;20253;-60
2020/12/07 07:19:41;;;;;;;4.57;2.90;;;6.50;99.90;;;;;;5031282;28;20578;-60
2020/12/07 07:22:08;;;;;;;3.60;2.80;;;6.50;99.90;;;;;;5031529;28;20206;-60
2020/12/07 07:24:46;;;;;;;7.47;2.90;;;6.50;99.90;;;;;;5031417;28;20210;-60
2020/12/07 07:29:57;;;;;;;5.03;4.00;;;6.60;99.90;;;;;;5030899;28;20205;-60
2020/12/07 07:32:23;;;;;;;5.77;4.13;;;6.60;99.90;;;;;;5031284;28;20206;-60
2020/12/07 07:34:50;;;;;;;3.97;3.20;;;6.70;99.90;;;;;;5031009;28;20217;-60
2020/12/07 07:37:17;;;;;;;4.60;3.30;;;6.70;99.90;;;;;;5030848;28;20230;-59
2020/12/07 07:39:45;;;;;;;4.40;3.53;;;6.80;99.90;;;;;;5031018;28;20601;-60
2020/12/07 07:42:13;;;;;;;2.83;2.53;;;6.80;99.90;;;;;;5031257;28;20206;-59
2020/12/07 07:44:40;;;;;;;4.03;3.00;;;6.90;99.90;;;;;;5030631;28;20581;-60
2020/12/07 07:47:10;;;;;;;6.57;2.97;;;7.00;99.90;;;;;;5030737;28;20230;-61
2020/12/07 07:50:11;;;;;;;3.83;3.03;;;7.10;99.90;;;;;;5031140;28;20253;-58
2020/12/07 08:18:19;;;;;;;3.07;2.70;;;8.00;99.90;;;;;;5030781;28;20325;-62
2020/12/07 08:20:54;;;;;;;3.47;2.63;;;8.10;99.90;;;;;;5031062;28;20233;-66
2020/12/07 08:23:26;;;;;;;3.33;2.73;;;8.20;99.90;;;;;;5030959;28;20243;-62
2020/12/07 08:25:53;;;;;;;2.63;2.37;;;8.40;99.90;;;;;;5031400;28;20553;-61
2020/12/07 08:28:25;;;;;;;3.03;2.63;;;8.50;99.90;;;;;;5030660;28;20234;-62
2020/12/07 08:31:03;;;;;;;4.23;3.00;;;8.50;99.90;;;;;;5030939;28;20589;-62
2020/12/07 08:33:30;;;;;;;3.90;2.90;;;8.50;99.90;;;;;;5031044;28;20206;-63
2020/12/07 08:35:57;;;;;;;5.50;2.87;;;8.50;99.90;;;;;;5030743;28;20203;-62
2020/12/07 08:38:25;;;;;;;3.60;2.53;;;8.40;99.90;;;;;;5030628;28;20222;-63
2020/12/07 08:40:51;;;;;;;3.80;2.10;;;8.50;99.90;;;;;;5030563;28;20214;-61
2020/12/07 08:43:17;;;;;;;2.73;2.47;;;8.50;99.90;;;;;;5030348;28;20717;-61
2020/12/07 08:45:45;;;;;;;4.30;2.60;;;8.50;99.90;;;;;;5030424;28;20210;-61
2020/12/07 08:48:12;;;;;;;2.87;2.30;;;8.50;99.90;;;;;;5030026;28;20310;-62
2020/12/07 08:50:38;;;;;;;4.53;2.90;;;8.60;99.90;;;;;;5030220;28;20598;-60
2020/12/07 08:53:04;;;;;;;2.50;2.30;;;8.70;99.90;;;;;;5030375;28;20207;-61
2020/12/07 08:55:30;;;;;;;2.50;2.30;;;8.80;99.90;;;;;;5029983;28;20209;-63
2020/12/07 08:57:56;;;;;;;3.23;2.23;;;8.80;99.90;;;;;;5030526;28;20240;-62
2020/12/07 09:00:23;;;;;;;2.60;2.10;;;8.90;99.90;;;;;;5030965;28;20202;-62
2020/12/07 09:02:50;;;;;;;2.63;2.27;;;8.90;99.90;;;;;;5031870;28;20260;-62
2020/12/07 09:05:16;;;;;;;4.07;2.40;;;8.90;99.90;;;;;;5032819;28;20206;-61
2020/12/07 09:07:42;;;;;;;3.90;2.47;;;8.90;99.90;;;;;;5034021;28;20234;-62
2020/12/07 09:10:09;;;;;;;3.10;2.57;;;9.00;99.90;;;;;;5034020;28;20675;-62
2020/12/07 09:12:35;;;;;;;2.63;2.13;;;9.20;99.90;;;;;;5034381;28;20206;-62
2020/12/07 09:15:02;;;;;;;3.53;2.23;;;9.20;99.90;;;;;;5034058;28;20221;-62
2020/12/07 09:17:28;;;;;;;2.63;2.20;;;9.20;99.90;;;;;;5033817;28;20230;-62
2020/12/07 09:19:55;;;;;;;2.90;2.13;;;9.20;99.90;;;;;;5034001;28;20210;-63
2020/12/07 09:22:21;;;;;;;2.53;2.00;;;9.20;99.90;;;;;;5033748;28;20679;-62
2020/12/07 09:24:48;;;;;;;3.20;2.47;;;9.30;99.90;;;;;;5033356;28;20217;-62
2020/12/07 09:27:14;;;;;;;3.60;2.30;;;9.30;99.90;;;;;;5033680;28;20299;-62
2020/12/07 09:29:40;;;;;;;2.97;2.40;;;9.10;99.90;;;;;;5033219;28;20609;-62
2020/12/07 09:32:06;;;;;;;2.73;2.17;;;9.20;99.90;;;;;;5033887;28;20212;-61
2020/12/07 09:34:33;;;;;;;3.87;2.80;;;9.20;99.90;;;;;;5033361;28;20206;-61
2020/12/07 09:37:00;;;;;;;4.30;3.23;;;9.30;99.90;;;;;;5033693;28;20230;-62
2020/12/07 09:39:26;;;;;;;4.20;3.40;;;9.40;99.90;;;;;;5033201;28;20207;-61
2020/12/07 09:41:52;;;;;;;3.37;2.50;;;9.40;99.90;;;;;;5033329;28;20218;-61
2020/12/07 09:44:19;;;;;;;3.37;2.60;;;9.20;99.90;;;;;;5033084;28;20682;-61
2020/12/07 09:46:45;;;;;;;3.17;2.37;;;8.80;99.90;;;;;;5033276;28;20231;-62
2020/12/07 09:49:11;;;;;;;2.73;2.40;;;8.60;99.90;;;;;;5032893;28;20665;-60
2020/12/07 09:51:37;;;;;;;3.50;2.27;;;8.30;99.90;;;;;;5033112;28;20212;-60
2020/12/07 09:54:04;;;;;;;3.60;2.37;;;8.10;99.90;;;;;;5032707;28;20584;-61
2020/12/07 09:56:30;;;;;;;3.60;2.30;;;8.00;99.90;;;;;;5033280;28;20280;-60
2020/12/07 09:58:57;;;;;;;2.60;2.13;;;8.10;99.90;;;;;;5032873;28;20226;-61
2020/12/07 10:01:24;;;;;;;5.00;2.60;;;8.20;99.90;;;;;;5033290;28;20301;-61
2020/12/07 10:03:50;;;;;;;4.07;2.47;;;8.20;99.90;;;;;;5033012;28;20214;-61
2020/12/07 10:06:16;;;;;;;3.17;2.50;;;8.10;99.90;;;;;;5033338;28;20206;-61
2020/12/07 10:08:42;;;;;;;2.60;2.00;;;8.20;99.90;;;;;;5032682;28;20257;-61
2020/12/07 10:11:12;;;;;;;5.13;2.37;;;8.30;99.90;;;;;;5033004;28;20209;-61
2020/12/07 10:13:38;;;;;;;4.13;2.40;;;8.20;99.90;;;;;;5032759;28;20694;-61
2020/12/07 10:16:05;;;;;;;4.23;2.30;;;8.00;99.90;;;;;;5032244;28;20217;-62
2020/12/07 10:18:31;;;;;;;3.93;2.40;;;7.80;99.90;;;;;;5032567;28;20226;-60
2020/12/07 10:20:57;;;;;;;2.47;2.20;;;7.80;99.90;;;;;;5032463;28;20875;-61
2020/12/07 10:23:23;;;;;;;3.37;2.10;;;7.90;99.90;;;;;;5032265;28;20213;-61
2020/12/07 10:25:50;;;;;;;3.57;2.60;;;8.30;99.90;;;;;;5032741;28;20210;-61
2020/12/07 10:28:17;;;;;;;5.80;2.53;;;8.60;99.90;;;;;;5032324;28;20313;-61
2020/12/07 10:30:43;;;;;;;3.37;2.87;;;8.70;99.90;;;;;;5032648;28;20210;-60
2020/12/07 10:33:09;;;;;;;4.47;2.70;;;8.70;99.90;;;;;;5032643;28;20241;-61
2020/12/07 10:35:35;;;;;;;4.33;2.30;;;8.90;99.90;;;;;;5032155;28;20218;-62
2020/12/07 10:38:02;;;;;;;2.57;2.10;;;9.00;99.90;;;;;;5031891;28;20237;-61
2020/12/07 10:40:28;;;;;;;2.50;2.30;;;9.20;99.90;;;;;;5032411;28;20726;-63
2020/12/07 10:42:54;;;;;;;3.97;2.33;;;9.50;99.90;;;;;;5032499;28;20214;-61
2020/12/07 10:45:21;;;;;;;4.73;3.37;;;9.50;99.90;;;;;;5032043;28;20210;-62
2020/12/07 10:47:48;;;;;;;3.50;2.60;;;9.70;99.90;;;;;;5032057;28;20245;-62
2020/12/07 10:50:14;;;;;;;5.67;3.20;;;9.60;99.90;;;;;;5032457;28;20221;-62
2020/12/07 10:52:41;;;;;;;3.67;2.37;;;9.40;99.90;;;;;;5032380;28;20218;-62
2020/12/07 10:55:07;;;;;;;4.07;2.43;;;9.20;99.90;;;;;;5032255;28;20217;-63
2020/12/07 10:57:33;;;;;;;3.50;2.60;;;9.10;99.90;;;;;;5032217;28;20233;-62
2020/12/07 10:59:59;;;;;;;3.30;2.30;;;9.20;99.90;;;;;;5032451;28;20700;-61
2020/12/07 11:02:28;;;;;;;2.20;2.00;;;9.30;99.90;;;;;;5032772;28;20213;-61
2020/12/07 11:04:54;;;;;;;3.57;2.40;;;9.20;99.90;;;;;;5032385;28;20614;-63
2020/12/07 11:07:23;;;;;;;2.23;2.03;;;9.20;99.90;;;;;;5032326;28;20280;-62
2020/12/07 11:09:49;;;;;;;3.10;2.50;;;9.30;99.90;;;;;;5031752;28;20214;-62
2020/12/07 11:12:19;;;;;;;3.03;2.17;;;9.40;99.90;;;;;;5031939;28;20202;-62
2020/12/07 11:14:45;;;;;;;3.53;2.17;;;9.50;99.90;;;;;;5031866;28;20441;-62
2020/12/07 11:17:11;;;;;;;4.70;2.30;;;9.60;99.90;;;;;;5031679;28;20257;-62
2020/12/07 11:19:42;;;;;;;2.90;2.00;;;9.80;99.90;;;;;;5031841;28;20202;-62
2020/12/07 11:22:08;;;;;;;2.73;2.40;;;10.00;99.90;;;;;;5031837;28;20639;-62
2020/12/07 11:24:35;;;;;;;3.87;2.80;;;10.00;99.90;;;;;;5031748;28;20229;-62
2020/12/07 11:27:01;;;;;;;2.77;2.47;;;9.80;99.90;;;;;;5032029;28;20225;-61
2020/12/07 11:29:27;;;;;;;3.83;2.23;;;9.80;99.90;;;;;;5030707;28;20213;-61
2020/12/07 11:31:53;;;;;;;3.67;2.63;;;9.60;99.90;;;;;;5031533;28;20203;-61
2020/12/07 11:34:20;;;;;;;3.57;2.30;;;9.70;99.90;;;;;;5031624;28;20202;-61
2020/12/07 11:36:47;;;;;;;2.43;2.00;;;9.90;99.90;;;;;;5031270;28;20226;-61
2020/12/07 11:39:26;;;;;;;4.23;2.20;;;10.20;99.90;;;;;;5031757;28;20217;-62
2020/12/07 11:42:08;;;;;;;2.87;2.10;;;10.40;99.90;;;;;;5031924;28;20210;-62
2020/12/07 11:44:34;;;;;;;2.97;2.00;;;10.50;99.90;;;;;;5031316;28;20246;-63
2020/12/07 11:47:03;;;;;;;4.13;1.90;;;10.60;99.90;;;;;;5032722;28;20630;-60
2020/12/07 11:49:29;;;;;;;4.47;2.57;;;10.60;99.90;;;;;;5031440;28;20237;-60
2020/12/07 11:51:56;;;;;;;3.53;2.00;;;10.70;99.90;;;;;;5031493;28;20210;-60
2020/12/07 11:54:22;;;;;;;2.17;1.97;;;10.70;99.90;;;;;;5031834;28;20206;-59
2020/12/07 11:56:48;;;;;;;3.80;2.07;;;10.80;99.90;;;;;;5030935;28;20226;-58
2020/12/07 11:59:15;;;;;;;3.00;2.30;;;11.00;99.90;;;;;;5030739;28;20214;-56
2020/12/07 12:01:42;;;;;;;2.87;2.37;;;11.30;99.90;;;;;;5031163;28;20241;-59
2020/12/07 12:04:08;;;;;;;3.30;2.03;;;11.40;99.90;;;;;;5030929;28;20634;-59
2020/12/07 12:06:36;;;;;;;3.40;2.10;;;11.50;99.90;;;;;;5031224;28;20233;-59
2020/12/07 12:09:05;;;;;;;2.73;2.10;;;11.50;99.90;;;;;;5030545;28;20206;-58
2020/12/07 12:11:33;;;;;;;2.73;2.17;;;11.50;99.90;;;;;;5031039;28;20237;-60
2020/12/07 12:14:00;;;;;;;2.30;2.10;;;11.40;99.90;;;;;;5031183;28;20218;-58
2020/12/07 12:16:27;;;;;;;3.27;1.90;;;11.40;99.90;;;;;;5030839;28;20210;-59
2020/12/07 12:18:53;;;;;;;4.43;1.90;;;11.40;99.80;;;;;;5030598;28;20202;-59
2020/12/07 12:21:20;;;;;;;2.17;1.80;;;11.70;99.40;;;;;;5030827;28;20623;-59
2020/12/07 12:23:46;;;;;;;2.77;2.10;;;11.70;99.20;;;;;;5030968;28;20233;-61
2020/12/07 12:26:14;;;;;;;3.63;2.20;;;11.80;99.10;;;;;;5030683;28;20252;-60
2020/12/07 12:28:40;;;;;;;2.10;1.80;;;11.90;98.90;;;;;;5030655;28;20210;-60
2020/12/07 12:31:06;;;;;;;3.20;2.60;;;11.80;98.90;;;;;;5030718;28;20210;-59
2020/12/07 12:33:33;;;;;;;3.20;2.47;;;11.80;98.90;;;;;;5030494;28;20206;-59
2020/12/07 12:35:59;;;;;;;5.57;2.50;;;11.60;98.80;;;;;;5030861;28;20237;-57
2020/12/07 12:38:26;;;;;;;3.20;2.20;;;11.60;98.90;;;;;;5030561;28;20234;-58
2020/12/07 12:40:52;;;;;;;4.10;2.43;;;11.50;98.70;;;;;;5033748;28;20256;-58
2020/12/07 12:43:19;;;;;;;4.07;2.27;;;11.30;98.90;;;;;;5035051;28;20218;-58
2020/12/07 12:45:45;;;;;;;2.23;2.00;;;11.20;99.30;;;;;;5034666;28;20240;-58
2020/12/07 12:48:12;;;;;;;4.83;2.33;;;11.10;99.30;;;;;;5034762;28;20253;-58
2020/12/07 12:50:38;;;;;;;3.03;2.30;;;11.10;99.30;;;;;;5034913;28;20206;-57
2020/12/07 12:53:04;;;;;;;4.13;2.50;;;11.00;99.50;;;;;;5034948;28;20229;-59
2020/12/07 12:55:30;;;;;;;2.70;2.30;;;10.90;99.70;;;;;;5035396;28;20206;-59
2020/12/07 12:57:56;;;;;;;3.07;2.60;;;10.80;99.90;;;;;;5034807;28;20764;-62
2020/12/07 13:00:23;;;;;;;4.80;3.47;;;10.60;99.90;;;;;;5035253;28;20206;-61
2020/12/07 13:02:50;;;;;;;5.23;2.63;;;10.60;99.90;;;;;;5035068;28;20210;-59
2020/12/07 13:05:16;;;;;;;2.27;2.07;;;10.70;99.90;;;;;;5034387;28;20220;-61
2020/12/07 13:07:42;;;;;;;2.53;2.33;;;10.70;99.90;;;;;;5034320;28;20222;-61
2020/12/07 13:10:09;;;;;;;3.57;2.70;;;10.60;99.70;;;;;;5034388;28;20568;-63
2020/12/07 13:12:35;;;;;;;3.80;3.40;;;10.50;99.90;;;;;;5034315;28;20207;-63
2020/12/07 13:15:03;;;;;;;3.97;2.80;;;10.30;99.90;;;;;;5033969;28;20682;-63
2020/12/07 13:17:33;;;;;;;3.00;2.50;;;10.10;99.90;;;;;;5034353;28;20690;-61
2020/12/07 13:20:03;;;;;;;3.73;2.10;;;9.90;99.90;;;;;;5033488;28;20213;-61
2020/12/07 13:22:36;;;;;;;3.03;2.37;;;9.70;99.90;;;;;;5034015;28;20237;-62
2020/12/07 13:25:05;;;;;;;5.33;2.73;;;9.60;99.90;;;;;;5033788;28;20210;-62
2020/12/07 13:27:45;;;;;;;2.23;1.97;;;9.60;99.90;;;;;;5033928;28;20227;-62